sensor_id;sensor_type;location;lat;lon;timestamp;temperature;humidity
19829;DHT22;10075;50.924;4.396;2022-09-09T00:00:19;16.00;99.90
19829;DHT22;10075;50.924;4.396;2022-09-09T00:02:55;16.00;99.90
19829;DHT22;10075;50.924;4.396;2022-09-09T00:05:31;16.00;99.90
19829;DHT22;10075;50.924;4.396;2022-09-09T00:08:02;16.00;99.90
19829;DHT22;10075;50.924;4.396;2022-09-09T00:10:32;16.00;99.90
19829;DHT22;10075;50.924;4.396;2022-09-09T00:13:13;16.00;99.90
19829;DHT22;10075;50.924;4.396;2022-09-09T00:15:48;16.00;99.90
19829;DHT22;10075;50.924;4.396;2022-09-09T00:18:23;16.00;99.90
19829;DHT22;10075;50.924;4.396;2022-09-09T00:20:55;16.00;99.90
19829;DHT22;10075;50.924;4.396;2022-09-09T00:23:25;16.00;99.90
19829;DHT22;10075;50.924;4.396;2022-09-09T00:26:00;15.90;99.90
19829;DHT22;10075;50.924;4.396;2022-09-09T00:28:33;15.90;99.90
19829;DHT22;10075;50.924;4.396;2022-09-09T00:31:11;15.80;99.90
19829;DHT22;10075;50.924;4.396;2022-09-09T00:33:39;15.80;99.90
19829;DHT22;10075;50.924;4.396;2022-09-09T00:36:13;15.80;99.90
19829;DHT22;10075;50.924;4.396;2022-09-09T00:38:45;15.80;99.90
19829;DHT22;10075;50.924;4.396;2022-09-09T00:41:19;15.80;99.90
19829;DHT22;10075;50.924;4.396;2022-09-09T00:43:56;15.80;99.90
19829;DHT22;10075;50.924;4.396;2022-09-09T00:46:47;15.90;99.90
19829;DHT22;10075;50.924;4.396;2022-09-09T00:49:27;15.90;99.90
19829;DHT22;10075;50.924;4.396;2022-09-09T00:52:08;15.90;99.90
19829;DHT22;10075;50.924;4.396;2022-09-09T00:54:45;15.90;99.90
19829;DHT22;10075;50.924;4.396;2022-09-09T00:57:23;16.00;99.90
19829;DHT22;10075;50.924;4.396;2022-09-09T00:59:55;16.00;99.90
19829;DHT22;10075;50.924;4.396;2022-09-09T01:02:28;16.00;99.90
19829;DHT22;10075;50.924;4.396;2022-09-09T01:04:59;16.00;99.90
19829;DHT22;10075;50.924;4.396;2022-09-09T01:07:28;15.90;99.90
19829;DHT22;10075;50.924;4.396;2022-09-09T01:09:56;16.00;99.90
19829;DHT22;10075;50.924;4.396;2022-09-09T01:12:29;15.90;99.90
19829;DHT22;10075;50.924;4.396;2022-09-09T01:15:08;15.90;99.90
19829;DHT22;10075;50.924;4.396;2022-09-09T01:17:46;15.90;99.90
19829;DHT22;10075;50.924;4.396;2022-09-09T01:20:20;16.00;99.90
19829;DHT22;10075;50.924;4.396;2022-09-09T01:23:05;16.00;99.90
19829;DHT22;10075;50.924;4.396;2022-09-09T01:28:40;16.00;99.90
19829;DHT22;10075;50.924;4.396;2022-09-09T01:31:13;15.90;99.90
19829;DHT22;10075;50.924;4.396;2022-09-09T01:33:40;15.90;99.90
19829;DHT22;10075;50.924;4.396;2022-09-09T01:36:10;15.90;99.90
19829;DHT22;10075;50.924;4.396;2022-09-09T01:38:39;15.90;99.90
19829;DHT22;10075;50.924;4.396;2022-09-09T01:41:06;15.90;99.90
19829;DHT22;10075;50.924;4.396;2022-09-09T01:43:33;15.90;99.90
19829;DHT22;10075;50.924;4.396;2022-09-09T01:46:02;15.90;99.90
19829;DHT22;10075;50.924;4.396;2022-09-09T01:48:29;15.90;99.90
19829;DHT22;10075;50.924;4.396;2022-09-09T01:50:57;15.90;99.90
19829;DHT22;10075;50.924;4.396;2022-09-09T01:53:24;15.90;99.90
19829;DHT22;10075;50.924;4.396;2022-09-09T01:55:58;15.90;99.90
19829;DHT22;10075;50.924;4.396;2022-09-09T01:58:32;16.00;99.90
19829;DHT22;10075;50.924;4.396;2022-09-09T02:01:06;16.00;99.90
19829;DHT22;10075;50.924;4.396;2022-09-09T02:03:36;15.90;99.90
19829;DHT22;10075;50.924;4.396;2022-09-09T02:06:14;15.90;99.90
19829;DHT22;10075;50.924;4.396;2022-09-09T02:08:46;15.80;99.90
19829;DHT22;10075;50.924;4.396;2022-09-09T02:11:17;15.80;99.90
19829;DHT22;10075;50.924;4.396;2022-09-09T02:13:46;15.80;99.90
19829;DHT22;10075;50.924;4.396;2022-09-09T02:16:20;15.80;99.90
19829;DHT22;10075;50.924;4.396;2022-09-09T02:18:50;15.80;99.90
19829;DHT22;10075;50.924;4.396;2022-09-09T02:21:18;15.80;99.90
19829;DHT22;10075;50.924;4.396;2022-09-09T02:23:47;15.80;99.90
19829;DHT22;10075;50.924;4.396;2022-09-09T02:26:19;15.80;99.90
19829;DHT22;10075;50.924;4.396;2022-09-09T02:28:51;15.90;99.90
19829;DHT22;10075;50.924;4.396;2022-09-09T02:31:23;15.90;99.90
19829;DHT22;10075;50.924;4.396;2022-09-09T02:33:54;15.90;99.90
19829;DHT22;10075;50.924;4.396;2022-09-09T02:36:24;15.90;99.90
19829;DHT22;10075;50.924;4.396;2022-09-09T02:38:53;15.90;99.90
19829;DHT22;10075;50.924;4.396;2022-09-09T02:41:23;15.90;99.90
19829;DHT22;10075;50.924;4.396;2022-09-09T02:43:51;16.00;99.90
19829;DHT22;10075;50.924;4.396;2022-09-09T02:46:36;16.00;99.90
19829;DHT22;10075;50.924;4.396;2022-09-09T02:49:08;16.00;99.90
19829;DHT22;10075;50.924;4.396;2022-09-09T02:51:42;16.00;99.90
19829;DHT22;10075;50.924;4.396;2022-09-09T02:54:19;15.90;99.90
19829;DHT22;10075;50.924;4.396;2022-09-09T02:56:51;15.90;99.90
19829;DHT22;10075;50.924;4.396;2022-09-09T02:59:20;15.90;99.90
19829;DHT22;10075;50.924;4.396;2022-09-09T03:01:49;15.80;99.90
19829;DHT22;10075;50.924;4.396;2022-09-09T03:04:16;15.90;99.90
19829;DHT22;10075;50.924;4.396;2022-09-09T03:06:43;15.80;99.90
19829;DHT22;10075;50.924;4.396;2022-09-09T03:09:10;15.90;99.90
19829;DHT22;10075;50.924;4.396;2022-09-09T03:11:38;15.90;99.90
19829;DHT22;10075;50.924;4.396;2022-09-09T03:14:05;15.90;99.90
19829;DHT22;10075;50.924;4.396;2022-09-09T03:16:32;15.90;99.90
19829;DHT22;10075;50.924;4.396;2022-09-09T03:19:01;15.90;99.90
19829;DHT22;10075;50.924;4.396;2022-09-09T03:21:28;15.80;99.90
19829;DHT22;10075;50.924;4.396;2022-09-09T03:23:55;15.70;99.90
19829;DHT22;10075;50.924;4.396;2022-09-09T03:26:22;15.80;99.90
19829;DHT22;10075;50.924;4.396;2022-09-09T03:28:50;15.80;99.90
19829;DHT22;10075;50.924;4.396;2022-09-09T03:31:18;15.70;99.90
19829;DHT22;10075;50.924;4.396;2022-09-09T03:33:45;15.70;99.90
19829;DHT22;10075;50.924;4.396;2022-09-09T03:36:14;15.70;99.90
19829;DHT22;10075;50.924;4.396;2022-09-09T03:38:41;15.70;99.90
19829;DHT22;10075;50.924;4.396;2022-09-09T03:41:08;15.70;99.90
19829;DHT22;10075;50.924;4.396;2022-09-09T03:43:35;15.80;99.90
19829;DHT22;10075;50.924;4.396;2022-09-09T03:46:03;15.80;99.90
19829;DHT22;10075;50.924;4.396;2022-09-09T03:48:32;15.80;99.90
19829;DHT22;10075;50.924;4.396;2022-09-09T03:50:59;15.80;99.90
19829;DHT22;10075;50.924;4.396;2022-09-09T03:53:30;15.80;99.90
19829;DHT22;10075;50.924;4.396;2022-09-09T03:55:57;15.80;99.90
19829;DHT22;10075;50.924;4.396;2022-09-09T03:58:26;15.70;99.90
19829;DHT22;10075;50.924;4.396;2022-09-09T04:00:55;15.70;99.90
19829;DHT22;10075;50.924;4.396;2022-09-09T04:03:22;15.80;99.90
19829;DHT22;10075;50.924;4.396;2022-09-09T04:05:50;15.90;99.90
19829;DHT22;10075;50.924;4.396;2022-09-09T04:08:17;15.90;99.90
19829;DHT22;10075;50.924;4.396;2022-09-09T04:10:47;15.90;99.90
19829;DHT22;10075;50.924;4.396;2022-09-09T04:13:14;16.00;99.90
19829;DHT22;10075;50.924;4.396;2022-09-09T04:15:42;16.00;99.90
19829;DHT22;10075;50.924;4.396;2022-09-09T04:18:09;16.00;99.90
19829;DHT22;10075;50.924;4.396;2022-09-09T04:20:37;15.90;99.90
19829;DHT22;10075;50.924;4.396;2022-09-09T04:23:04;15.90;99.90
19829;DHT22;10075;50.924;4.396;2022-09-09T04:25:31;15.90;99.90
19829;DHT22;10075;50.924;4.396;2022-09-09T04:28:01;15.80;99.90
19829;DHT22;10075;50.924;4.396;2022-09-09T04:30:28;15.80;99.90
19829;DHT22;10075;50.924;4.396;2022-09-09T04:32:56;15.70;99.90
19829;DHT22;10075;50.924;4.396;2022-09-09T04:35:24;15.70;99.90
19829;DHT22;10075;50.924;4.396;2022-09-09T04:37:52;15.60;99.90
19829;DHT22;10075;50.924;4.396;2022-09-09T04:40:19;15.60;99.90
19829;DHT22;10075;50.924;4.396;2022-09-09T04:42:47;15.70;99.90
19829;DHT22;10075;50.924;4.396;2022-09-09T04:45:17;15.60;99.90
19829;DHT22;10075;50.924;4.396;2022-09-09T04:47:44;15.60;99.90
19829;DHT22;10075;50.924;4.396;2022-09-09T04:50:11;15.60;99.90
19829;DHT22;10075;50.924;4.396;2022-09-09T04:52:38;15.60;99.90
19829;DHT22;10075;50.924;4.396;2022-09-09T04:55:07;15.70;99.90
19829;DHT22;10075;50.924;4.396;2022-09-09T04:57:35;15.60;99.90
19829;DHT22;10075;50.924;4.396;2022-09-09T05:00:03;15.60;99.90
19829;DHT22;10075;50.924;4.396;2022-09-09T05:02:32;15.50;99.90
19829;DHT22;10075;50.924;4.396;2022-09-09T05:04:59;15.50;99.90
19829;DHT22;10075;50.924;4.396;2022-09-09T05:07:27;15.60;99.90
19829;DHT22;10075;50.924;4.396;2022-09-09T05:09:54;15.60;99.90
19829;DHT22;10075;50.924;4.396;2022-09-09T05:12:21;15.60;99.90
19829;DHT22;10075;50.924;4.396;2022-09-09T05:14:51;15.60;99.90
19829;DHT22;10075;50.924;4.396;2022-09-09T05:17:18;15.60;99.90
19829;DHT22;10075;50.924;4.396;2022-09-09T05:19:46;15.60;99.90
19829;DHT22;10075;50.924;4.396;2022-09-09T05:22:17;15.70;99.90
19829;DHT22;10075;50.924;4.396;2022-09-09T05:24:44;15.70;99.90
19829;DHT22;10075;50.924;4.396;2022-09-09T05:27:11;15.80;99.90
19829;DHT22;10075;50.924;4.396;2022-09-09T05:29:39;15.70;99.90
19829;DHT22;10075;50.924;4.396;2022-09-09T05:32:07;15.70;99.90
19829;DHT22;10075;50.924;4.396;2022-09-09T05:34:35;15.80;99.90
19829;DHT22;10075;50.924;4.396;2022-09-09T05:37:04;15.90;99.90
19829;DHT22;10075;50.924;4.396;2022-09-09T05:39:32;16.00;99.90
19829;DHT22;10075;50.924;4.396;2022-09-09T05:41:59;16.10;99.90
19829;DHT22;10075;50.924;4.396;2022-09-09T05:44:27;16.10;99.90
19829;DHT22;10075;50.924;4.396;2022-09-09T05:46:55;16.20;99.90
19829;DHT22;10075;50.924;4.396;2022-09-09T05:49:22;16.20;99.90
19829;DHT22;10075;50.924;4.396;2022-09-09T05:51:49;16.30;99.90
19829;DHT22;10075;50.924;4.396;2022-09-09T05:54:18;16.30;99.90
19829;DHT22;10075;50.924;4.396;2022-09-09T05:56:45;16.30;99.90
19829;DHT22;10075;50.924;4.396;2022-09-09T05:59:12;16.20;99.90
19829;DHT22;10075;50.924;4.396;2022-09-09T06:01:40;16.20;99.90
19829;DHT22;10075;50.924;4.396;2022-09-09T06:04:07;16.20;99.90
19829;DHT22;10075;50.924;4.396;2022-09-09T06:06:36;16.20;99.90
19829;DHT22;10075;50.924;4.396;2022-09-09T06:09:06;16.20;99.90
19829;DHT22;10075;50.924;4.396;2022-09-09T06:11:37;16.30;99.90
19829;DHT22;10075;50.924;4.396;2022-09-09T06:14:05;16.20;99.90
19829;DHT22;10075;50.924;4.396;2022-09-09T06:16:32;16.10;99.90
19829;DHT22;10075;50.924;4.396;2022-09-09T06:19:00;16.10;99.90
19829;DHT22;10075;50.924;4.396;2022-09-09T06:21:29;16.20;99.90
19829;DHT22;10075;50.924;4.396;2022-09-09T06:23:57;16.40;99.90
19829;DHT22;10075;50.924;4.396;2022-09-09T06:26:25;16.40;99.90
19829;DHT22;10075;50.924;4.396;2022-09-09T06:28:55;16.50;99.90
19829;DHT22;10075;50.924;4.396;2022-09-09T06:31:25;16.60;99.90
19829;DHT22;10075;50.924;4.396;2022-09-09T06:33:54;16.60;99.90
19829;DHT22;10075;50.924;4.396;2022-09-09T06:36:22;16.70;99.90
19829;DHT22;10075;50.924;4.396;2022-09-09T06:38:49;16.90;99.90
19829;DHT22;10075;50.924;4.396;2022-09-09T06:41:18;16.80;99.90
19829;DHT22;10075;50.924;4.396;2022-09-09T06:43:46;16.80;99.90
19829;DHT22;10075;50.924;4.396;2022-09-09T06:46:16;16.80;99.90
19829;DHT22;10075;50.924;4.396;2022-09-09T06:48:44;16.90;99.90
19829;DHT22;10075;50.924;4.396;2022-09-09T06:51:13;17.00;99.90
19829;DHT22;10075;50.924;4.396;2022-09-09T06:53:41;17.00;99.90
19829;DHT22;10075;50.924;4.396;2022-09-09T06:56:21;17.10;99.90
19829;DHT22;10075;50.924;4.396;2022-09-09T06:58:49;17.30;99.90
19829;DHT22;10075;50.924;4.396;2022-09-09T07:01:20;17.30;99.90
19829;DHT22;10075;50.924;4.396;2022-09-09T07:03:49;17.30;99.90
19829;DHT22;10075;50.924;4.396;2022-09-09T07:06:18;17.30;99.90
19829;DHT22;10075;50.924;4.396;2022-09-09T07:08:49;17.30;99.90
19829;DHT22;10075;50.924;4.396;2022-09-09T07:11:17;17.50;99.90
19829;DHT22;10075;50.924;4.396;2022-09-09T07:13:44;17.70;99.90
19829;DHT22;10075;50.924;4.396;2022-09-09T07:16:13;17.80;99.90
19829;DHT22;10075;50.924;4.396;2022-09-09T07:18:42;18.00;99.90
19829;DHT22;10075;50.924;4.396;2022-09-09T07:21:10;17.90;99.90
19829;DHT22;10075;50.924;4.396;2022-09-09T07:23:37;17.90;99.90
19829;DHT22;10075;50.924;4.396;2022-09-09T07:26:08;17.90;99.90
19829;DHT22;10075;50.924;4.396;2022-09-09T07:28:37;18.00;99.90
19829;DHT22;10075;50.924;4.396;2022-09-09T07:31:05;18.10;99.90
19829;DHT22;10075;50.924;4.396;2022-09-09T07:33:33;18.10;99.90
19829;DHT22;10075;50.924;4.396;2022-09-09T07:36:05;18.10;99.90
19829;DHT22;10075;50.924;4.396;2022-09-09T07:38:38;18.20;99.90
19829;DHT22;10075;50.924;4.396;2022-09-09T07:41:07;18.30;99.90
19829;DHT22;10075;50.924;4.396;2022-09-09T07:43:37;18.40;99.90
19829;DHT22;10075;50.924;4.396;2022-09-09T07:46:05;18.50;99.90
19829;DHT22;10075;50.924;4.396;2022-09-09T07:48:32;18.40;99.90
19829;DHT22;10075;50.924;4.396;2022-09-09T07:51:11;18.20;99.90
19829;DHT22;10075;50.924;4.396;2022-09-09T07:53:42;18.20;99.90
19829;DHT22;10075;50.924;4.396;2022-09-09T07:56:12;18.10;99.90
19829;DHT22;10075;50.924;4.396;2022-09-09T07:58:40;18.20;99.90
19829;DHT22;10075;50.924;4.396;2022-09-09T08:01:09;18.30;99.90
19829;DHT22;10075;50.924;4.396;2022-09-09T08:03:37;18.40;99.90
19829;DHT22;10075;50.924;4.396;2022-09-09T08:06:07;18.50;99.90
19829;DHT22;10075;50.924;4.396;2022-09-09T08:08:36;18.60;99.90
19829;DHT22;10075;50.924;4.396;2022-09-09T08:11:06;18.80;99.90
19829;DHT22;10075;50.924;4.396;2022-09-09T08:13:35;19.00;99.90
19829;DHT22;10075;50.924;4.396;2022-09-09T08:16:09;19.00;99.90
19829;DHT22;10075;50.924;4.396;2022-09-09T08:18:37;19.00;99.90
19829;DHT22;10075;50.924;4.396;2022-09-09T08:21:08;19.10;99.90
19829;DHT22;10075;50.924;4.396;2022-09-09T08:23:39;19.20;99.90
19829;DHT22;10075;50.924;4.396;2022-09-09T08:26:10;19.20;99.90
19829;DHT22;10075;50.924;4.396;2022-09-09T08:28:37;19.30;99.90
19829;DHT22;10075;50.924;4.396;2022-09-09T08:31:09;19.20;99.90
19829;DHT22;10075;50.924;4.396;2022-09-09T08:33:36;19.00;99.90
19829;DHT22;10075;50.924;4.396;2022-09-09T08:36:04;18.90;99.90
19829;DHT22;10075;50.924;4.396;2022-09-09T08:38:32;18.90;99.90
19829;DHT22;10075;50.924;4.396;2022-09-09T08:41:12;18.90;99.90
19829;DHT22;10075;50.924;4.396;2022-09-09T08:43:43;18.80;99.90
19829;DHT22;10075;50.924;4.396;2022-09-09T08:46:16;18.60;99.90
19829;DHT22;10075;50.924;4.396;2022-09-09T08:48:54;18.70;99.90
19829;DHT22;10075;50.924;4.396;2022-09-09T08:51:26;18.60;99.90
19829;DHT22;10075;50.924;4.396;2022-09-09T08:53:54;18.60;99.90
19829;DHT22;10075;50.924;4.396;2022-09-09T08:56:27;18.60;99.90
19829;DHT22;10075;50.924;4.396;2022-09-09T08:59:00;18.70;99.90
19829;DHT22;10075;50.924;4.396;2022-09-09T09:01:51;18.80;99.90
19829;DHT22;10075;50.924;4.396;2022-09-09T09:04:41;18.80;99.90
19829;DHT22;10075;50.924;4.396;2022-09-09T09:07:22;19.10;99.90
19829;DHT22;10075;50.924;4.396;2022-09-09T09:09:59;18.90;99.90
19829;DHT22;10075;50.924;4.396;2022-09-09T09:12:32;18.80;99.90
19829;DHT22;10075;50.924;4.396;2022-09-09T09:15:02;18.70;99.90
19829;DHT22;10075;50.924;4.396;2022-09-09T09:17:37;18.50;99.90
19829;DHT22;10075;50.924;4.396;2022-09-09T09:20:10;18.40;99.90
19829;DHT22;10075;50.924;4.396;2022-09-09T09:22:45;18.40;99.90
19829;DHT22;10075;50.924;4.396;2022-09-09T09:25:17;18.40;99.90
19829;DHT22;10075;50.924;4.396;2022-09-09T09:27:51;18.40;99.90
19829;DHT22;10075;50.924;4.396;2022-09-09T09:30:23;18.50;99.90
19829;DHT22;10075;50.924;4.396;2022-09-09T09:32:53;18.50;99.90
19829;DHT22;10075;50.924;4.396;2022-09-09T09:35:22;18.50;99.90
19829;DHT22;10075;50.924;4.396;2022-09-09T09:37:49;18.50;99.90
19829;DHT22;10075;50.924;4.396;2022-09-09T09:40:18;18.60;99.90
19829;DHT22;10075;50.924;4.396;2022-09-09T09:42:51;18.40;99.90
19829;DHT22;10075;50.924;4.396;2022-09-09T09:45:27;18.50;99.90
19829;DHT22;10075;50.924;4.396;2022-09-09T09:48:03;18.70;99.90
19829;DHT22;10075;50.924;4.396;2022-09-09T09:50:32;18.80;99.90
19829;DHT22;10075;50.924;4.396;2022-09-09T09:53:03;18.90;99.90
19829;DHT22;10075;50.924;4.396;2022-09-09T09:55:33;18.90;99.90
19829;DHT22;10075;50.924;4.396;2022-09-09T09:58:03;18.90;99.90
19829;DHT22;10075;50.924;4.396;2022-09-09T10:00:31;18.90;99.90
19829;DHT22;10075;50.924;4.396;2022-09-09T10:03:01;18.80;99.90
19829;DHT22;10075;50.924;4.396;2022-09-09T10:05:29;18.70;99.90
19829;DHT22;10075;50.924;4.396;2022-09-09T10:08:02;18.80;99.90
19829;DHT22;10075;50.924;4.396;2022-09-09T10:10:47;18.80;99.90
19829;DHT22;10075;50.924;4.396;2022-09-09T10:13:22;18.90;99.90
19829;DHT22;10075;50.924;4.396;2022-09-09T10:16:00;18.90;99.90
19829;DHT22;10075;50.924;4.396;2022-09-09T10:18:39;19.00;99.90
19829;DHT22;10075;50.924;4.396;2022-09-09T10:21:16;19.10;99.90
19829;DHT22;10075;50.924;4.396;2022-09-09T10:24:00;19.30;99.90
19829;DHT22;10075;50.924;4.396;2022-09-09T10:26:38;19.60;99.90
19829;DHT22;10075;50.924;4.396;2022-09-09T10:29:40;19.80;99.90
19829;DHT22;10075;50.924;4.396;2022-09-09T10:32:33;20.00;99.90
19829;DHT22;10075;50.924;4.396;2022-09-09T10:35:09;20.20;99.90
19829;DHT22;10075;50.924;4.396;2022-09-09T10:37:54;20.40;99.90
19829;DHT22;10075;50.924;4.396;2022-09-09T10:40:32;20.40;99.90
19829;DHT22;10075;50.924;4.396;2022-09-09T10:43:07;20.40;99.90
19829;DHT22;10075;50.924;4.396;2022-09-09T10:45:46;20.60;99.90
19829;DHT22;10075;50.924;4.396;2022-09-09T10:48:27;20.80;99.90
19829;DHT22;10075;50.924;4.396;2022-09-09T10:51:03;21.00;99.90
19829;DHT22;10075;50.924;4.396;2022-09-09T10:53:45;21.30;99.90
19829;DHT22;10075;50.924;4.396;2022-09-09T10:56:18;21.50;99.90
19829;DHT22;10075;50.924;4.396;2022-09-09T10:58:49;21.40;99.90
19829;DHT22;10075;50.924;4.396;2022-09-09T11:01:22;21.30;99.90
19829;DHT22;10075;50.924;4.396;2022-09-09T11:03:55;21.30;99.90
19829;DHT22;10075;50.924;4.396;2022-09-09T11:06:30;21.30;99.90
19829;DHT22;10075;50.924;4.396;2022-09-09T11:09:01;21.40;99.90
19829;DHT22;10075;50.924;4.396;2022-09-09T11:11:33;21.50;99.90
19829;DHT22;10075;50.924;4.396;2022-09-09T11:14:09;21.80;99.90
19829;DHT22;10075;50.924;4.396;2022-09-09T11:16:41;22.00;99.90
19829;DHT22;10075;50.924;4.396;2022-09-09T11:19:16;22.20;99.90
19829;DHT22;10075;50.924;4.396;2022-09-09T11:21:48;22.10;99.90
19829;DHT22;10075;50.924;4.396;2022-09-09T11:24:21;21.90;99.90
19829;DHT22;10075;50.924;4.396;2022-09-09T11:26:52;22.00;99.90
19829;DHT22;10075;50.924;4.396;2022-09-09T11:29:52;21.90;99.90
19829;DHT22;10075;50.924;4.396;2022-09-09T11:32:54;21.90;99.90
19829;DHT22;10075;50.924;4.396;2022-09-09T11:35:33;21.90;99.90
19829;DHT22;10075;50.924;4.396;2022-09-09T11:40:58;22.20;99.90
19829;DHT22;10075;50.924;4.396;2022-09-09T11:43:30;22.00;99.90
19829;DHT22;10075;50.924;4.396;2022-09-09T11:46:00;21.80;99.90
19829;DHT22;10075;50.924;4.396;2022-09-09T11:51:39;21.70;99.90
19829;DHT22;10075;50.924;4.396;2022-09-09T11:54:26;21.70;99.90
19829;DHT22;10075;50.924;4.396;2022-09-09T11:56:55;21.80;99.90
19829;DHT22;10075;50.924;4.396;2022-09-09T11:59:25;22.00;99.90
19829;DHT22;10075;50.924;4.396;2022-09-09T12:01:55;22.00;99.90
19829;DHT22;10075;50.924;4.396;2022-09-09T12:04:36;22.10;99.90
19829;DHT22;10075;50.924;4.396;2022-09-09T12:07:25;22.20;99.90
19829;DHT22;10075;50.924;4.396;2022-09-09T12:09:57;22.20;99.90
19829;DHT22;10075;50.924;4.396;2022-09-09T12:12:30;22.10;99.90
19829;DHT22;10075;50.924;4.396;2022-09-09T12:15:19;22.10;99.90
19829;DHT22;10075;50.924;4.396;2022-09-09T12:17:48;22.10;99.90
19829;DHT22;10075;50.924;4.396;2022-09-09T12:20:19;22.10;99.90
19829;DHT22;10075;50.924;4.396;2022-09-09T12:23:13;22.30;99.90
19829;DHT22;10075;50.924;4.396;2022-09-09T12:26:03;22.10;99.90
19829;DHT22;10075;50.924;4.396;2022-09-09T12:28:51;22.00;99.90
19829;DHT22;10075;50.924;4.396;2022-09-09T12:31:24;22.10;99.90
19829;DHT22;10075;50.924;4.396;2022-09-09T12:33:52;22.30;99.90
19829;DHT22;10075;50.924;4.396;2022-09-09T12:36:22;22.60;99.90
19829;DHT22;10075;50.924;4.396;2022-09-09T12:38:52;22.50;99.90
19829;DHT22;10075;50.924;4.396;2022-09-09T12:41:21;22.50;99.90
19829;DHT22;10075;50.924;4.396;2022-09-09T12:43:48;22.60;99.90
19829;DHT22;10075;50.924;4.396;2022-09-09T12:46:26;22.70;99.90
19829;DHT22;10075;50.924;4.396;2022-09-09T12:48:58;22.90;99.90
19829;DHT22;10075;50.924;4.396;2022-09-09T12:51:28;23.10;99.90
19829;DHT22;10075;50.924;4.396;2022-09-09T12:53:57;23.20;99.90
19829;DHT22;10075;50.924;4.396;2022-09-09T12:56:26;23.30;99.90
19829;DHT22;10075;50.924;4.396;2022-09-09T12:58:56;23.30;99.90
19829;DHT22;10075;50.924;4.396;2022-09-09T13:01:26;23.30;99.90
19829;DHT22;10075;50.924;4.396;2022-09-09T13:03:54;23.30;99.90
19829;DHT22;10075;50.924;4.396;2022-09-09T13:06:22;23.50;99.90
19829;DHT22;10075;50.924;4.396;2022-09-09T13:08:50;23.50;99.90
19829;DHT22;10075;50.924;4.396;2022-09-09T13:11:22;23.30;99.90
19829;DHT22;10075;50.924;4.396;2022-09-09T13:13:52;23.30;99.90
19829;DHT22;10075;50.924;4.396;2022-09-09T13:16:22;23.30;99.90
19829;DHT22;10075;50.924;4.396;2022-09-09T13:18:52;23.30;99.90
19829;DHT22;10075;50.924;4.396;2022-09-09T13:21:19;23.40;99.90
19829;DHT22;10075;50.924;4.396;2022-09-09T13:23:50;23.30;99.90
19829;DHT22;10075;50.924;4.396;2022-09-09T13:26:23;23.40;99.90
19829;DHT22;10075;50.924;4.396;2022-09-09T13:28:51;23.60;99.90
19829;DHT22;10075;50.924;4.396;2022-09-09T13:31:22;23.40;99.90
19829;DHT22;10075;50.924;4.396;2022-09-09T13:33:50;23.50;99.90
19829;DHT22;10075;50.924;4.396;2022-09-09T13:36:28;23.40;99.90
19829;DHT22;10075;50.924;4.396;2022-09-09T13:38:57;23.50;99.90
19829;DHT22;10075;50.924;4.396;2022-09-09T13:41:29;23.60;99.90
19829;DHT22;10075;50.924;4.396;2022-09-09T13:43:59;23.70;99.90
19829;DHT22;10075;50.924;4.396;2022-09-09T13:46:33;23.80;99.90
19829;DHT22;10075;50.924;4.396;2022-09-09T13:49:16;23.90;99.90
19829;DHT22;10075;50.924;4.396;2022-09-09T13:51:46;23.90;99.90
19829;DHT22;10075;50.924;4.396;2022-09-09T13:54:17;24.10;99.90
19829;DHT22;10075;50.924;4.396;2022-09-09T13:56:46;24.20;99.90
19829;DHT22;10075;50.924;4.396;2022-09-09T13:59:17;24.30;99.90
19829;DHT22;10075;50.924;4.396;2022-09-09T14:01:45;24.20;99.90
19829;DHT22;10075;50.924;4.396;2022-09-09T14:04:12;24.20;99.90
19829;DHT22;10075;50.924;4.396;2022-09-09T14:06:40;23.90;99.90
19829;DHT22;10075;50.924;4.396;2022-09-09T14:09:11;23.80;99.90
19829;DHT22;10075;50.924;4.396;2022-09-09T14:11:38;24.10;99.90
19829;DHT22;10075;50.924;4.396;2022-09-09T14:14:07;24.30;99.90
19829;DHT22;10075;50.924;4.396;2022-09-09T14:16:34;24.40;99.90
19829;DHT22;10075;50.924;4.396;2022-09-09T14:19:02;24.40;99.90
19829;DHT22;10075;50.924;4.396;2022-09-09T14:21:29;24.40;99.90
19829;DHT22;10075;50.924;4.396;2022-09-09T14:23:56;24.00;99.90
19829;DHT22;10075;50.924;4.396;2022-09-09T14:26:24;23.80;99.90
19829;DHT22;10075;50.924;4.396;2022-09-09T14:28:51;23.60;99.90
19829;DHT22;10075;50.924;4.396;2022-09-09T14:31:20;23.60;99.90
19829;DHT22;10075;50.924;4.396;2022-09-09T14:33:47;23.70;99.90
19829;DHT22;10075;50.924;4.396;2022-09-09T14:36:14;23.70;99.90
19829;DHT22;10075;50.924;4.396;2022-09-09T14:38:41;23.70;99.90
19829;DHT22;10075;50.924;4.396;2022-09-09T14:41:15;23.80;99.90
19829;DHT22;10075;50.924;4.396;2022-09-09T14:43:43;24.10;99.90
19829;DHT22;10075;50.924;4.396;2022-09-09T14:46:13;24.30;99.90
19829;DHT22;10075;50.924;4.396;2022-09-09T14:48:42;24.50;99.90
19829;DHT22;10075;50.924;4.396;2022-09-09T14:51:10;24.60;99.90
19829;DHT22;10075;50.924;4.396;2022-09-09T14:53:38;24.90;99.90
19829;DHT22;10075;50.924;4.396;2022-09-09T14:56:07;25.10;99.90
19829;DHT22;10075;50.924;4.396;2022-09-09T14:58:34;25.20;99.90
19829;DHT22;10075;50.924;4.396;2022-09-09T15:01:03;25.40;99.90
19829;DHT22;10075;50.924;4.396;2022-09-09T15:03:30;25.70;99.90
19829;DHT22;10075;50.924;4.396;2022-09-09T15:06:04;26.20;99.90
19829;DHT22;10075;50.924;4.396;2022-09-09T15:08:31;27.30;99.90
19829;DHT22;10075;50.924;4.396;2022-09-09T15:10:59;28.30;97.40
19829;DHT22;10075;50.924;4.396;2022-09-09T15:13:27;28.90;95.00
19829;DHT22;10075;50.924;4.396;2022-09-09T15:15:54;29.50;93.30
19829;DHT22;10075;50.924;4.396;2022-09-09T15:18:21;29.30;92.50
19829;DHT22;10075;50.924;4.396;2022-09-09T15:20:48;28.90;93.20
19829;DHT22;10075;50.924;4.396;2022-09-09T15:23:17;28.80;93.00
19829;DHT22;10075;50.924;4.396;2022-09-09T15:25:51;28.50;93.40
19829;DHT22;10075;50.924;4.396;2022-09-09T15:28:18;28.60;93.40
19829;DHT22;10075;50.924;4.396;2022-09-09T15:30:48;29.00;92.70
19829;DHT22;10075;50.924;4.396;2022-09-09T15:33:15;28.90;92.10
19829;DHT22;10075;50.924;4.396;2022-09-09T15:35:42;28.10;92.40
19829;DHT22;10075;50.924;4.396;2022-09-09T15:38:09;27.80;92.90
19829;DHT22;10075;50.924;4.396;2022-09-09T15:40:40;27.60;93.30
19829;DHT22;10075;50.924;4.396;2022-09-09T15:43:07;27.60;94.20
19829;DHT22;10075;50.924;4.396;2022-09-09T15:45:35;27.70;94.60
19829;DHT22;10075;50.924;4.396;2022-09-09T15:48:03;27.70;94.40
19829;DHT22;10075;50.924;4.396;2022-09-09T15:50:30;28.10;94.50
19829;DHT22;10075;50.924;4.396;2022-09-09T15:52:58;28.60;92.80
19829;DHT22;10075;50.924;4.396;2022-09-09T15:55:25;29.10;92.20
19829;DHT22;10075;50.924;4.396;2022-09-09T15:57:53;29.10;91.80
19829;DHT22;10075;50.924;4.396;2022-09-09T16:00:20;28.50;91.90
19829;DHT22;10075;50.924;4.396;2022-09-09T16:02:48;27.70;92.80